sensor_id;sensor_type;location;lat;lon;timestamp;P1;durP1;ratioP1;P2;durP2;ratioP2
75012;SDS011;63567;49.956;20.130;2022-09-29T00:02:07;3.23;;;1.70;;
75012;SDS011;63567;49.956;20.130;2022-09-29T00:04:33;3.03;;;2.20;;
75012;SDS011;63567;49.956;20.130;2022-09-29T00:06:58;3.00;;;1.90;;
75012;SDS011;63567;49.956;20.130;2022-09-29T00:09:23;3.70;;;2.20;;
75012;SDS011;63567;49.956;20.130;2022-09-29T00:11:52;2.97;;;2.00;;
75012;SDS011;63567;49.956;20.130;2022-09-29T00:14:18;3.95;;;2.65;;
75012;SDS011;63567;49.956;20.130;2022-09-29T00:16:43;2.70;;;1.97;;
75012;SDS011;63567;49.956;20.130;2022-09-29T00:19:10;4.30;;;2.65;;
75012;SDS011;63567;49.956;20.130;2022-09-29T00:21:35;3.95;;;2.25;;
75012;SDS011;63567;49.956;20.130;2022-09-29T00:24:01;3.23;;;2.10;;
75012;SDS011;63567;49.956;20.130;2022-09-29T00:26:26;3.97;;;2.08;;
75012;SDS011;63567;49.956;20.130;2022-09-29T00:28:53;2.88;;;1.80;;
75012;SDS011;63567;49.956;20.130;2022-09-29T00:31:24;4.68;;;2.17;;
75012;SDS011;63567;49.956;20.130;2022-09-29T00:33:51;3.38;;;2.00;;
75012;SDS011;63567;49.956;20.130;2022-09-29T00:36:17;3.63;;;2.57;;
75012;SDS011;63567;49.956;20.130;2022-09-29T00:38:44;4.82;;;2.75;;
75012;SDS011;63567;49.956;20.130;2022-09-29T00:41:14;3.72;;;2.33;;
75012;SDS011;63567;49.956;20.130;2022-09-29T00:51:57;3.20;;;2.40;;
75012;SDS011;63567;49.956;20.130;2022-09-29T00:54:26;5.18;;;2.80;;
75012;SDS011;63567;49.956;20.130;2022-09-29T00:56:55;3.85;;;3.03;;
75012;SDS011;63567;49.956;20.130;2022-09-29T00:59:23;5.85;;;3.20;;
75012;SDS011;63567;49.956;20.130;2022-09-29T01:01:56;5.35;;;3.70;;
75012;SDS011;63567;49.956;20.130;2022-09-29T01:04:22;8.05;;;5.05;;
75012;SDS011;63567;49.956;20.130;2022-09-29T01:06:49;5.38;;;3.50;;
75012;SDS011;63567;49.956;20.130;2022-09-29T01:09:18;6.72;;;4.70;;
75012;SDS011;63567;49.956;20.130;2022-09-29T01:11:47;6.30;;;4.13;;
75012;SDS011;63567;49.956;20.130;2022-09-29T01:14:13;7.88;;;4.63;;
75012;SDS011;63567;49.956;20.130;2022-09-29T01:16:40;9.23;;;5.97;;
75012;SDS011;63567;49.956;20.130;2022-09-29T01:19:07;8.60;;;5.40;;
75012;SDS011;63567;49.956;20.130;2022-09-29T01:27:29;6.40;;;4.38;;
75012;SDS011;63567;49.956;20.130;2022-09-29T01:30:11;7.22;;;4.35;;
75012;SDS011;63567;49.956;20.130;2022-09-29T01:35:29;7.53;;;5.30;;
75012;SDS011;63567;49.956;20.130;2022-09-29T01:40:45;6.90;;;4.40;;
75012;SDS011;63567;49.956;20.130;2022-09-29T01:43:24;7.18;;;4.57;;
75012;SDS011;63567;49.956;20.130;2022-09-29T01:48:33;10.68;;;5.78;;
75012;SDS011;63567;49.956;20.130;2022-09-29T01:51:08;10.55;;;6.38;;
75012;SDS011;63567;49.956;20.130;2022-09-29T01:53:43;8.63;;;5.90;;
75012;SDS011;63567;49.956;20.130;2022-09-29T01:56:14;9.82;;;5.57;;
75012;SDS011;63567;49.956;20.130;2022-09-29T01:58:55;10.98;;;6.50;;
75012;SDS011;63567;49.956;20.130;2022-09-29T02:01:27;11.27;;;6.60;;
75012;SDS011;63567;49.956;20.130;2022-09-29T02:04:21;10.02;;;6.88;;
75012;SDS011;63567;49.956;20.130;2022-09-29T02:06:53;13.20;;;6.95;;
75012;SDS011;63567;49.956;20.130;2022-09-29T02:09:27;11.77;;;7.97;;
75012;SDS011;63567;49.956;20.130;2022-09-29T02:11:58;14.40;;;8.70;;
75012;SDS011;63567;49.956;20.130;2022-09-29T02:14:28;14.82;;;8.68;;
75012;SDS011;63567;49.956;20.130;2022-09-29T02:17:17;13.57;;;7.88;;
75012;SDS011;63567;49.956;20.130;2022-09-29T02:19:45;14.93;;;8.63;;
75012;SDS011;63567;49.956;20.130;2022-09-29T02:22:13;15.60;;;8.85;;
75012;SDS011;63567;49.956;20.130;2022-09-29T02:24:39;10.68;;;7.47;;
75012;SDS011;63567;49.956;20.130;2022-09-29T02:27:05;13.90;;;8.68;;
75012;SDS011;63567;49.956;20.130;2022-09-29T02:29:31;13.15;;;8.30;;
75012;SDS011;63567;49.956;20.130;2022-09-29T02:31:59;11.43;;;7.28;;
75012;SDS011;63567;49.956;20.130;2022-09-29T02:34:26;12.18;;;8.02;;
75012;SDS011;63567;49.956;20.130;2022-09-29T02:42:21;15.55;;;9.50;;
75012;SDS011;63567;49.956;20.130;2022-09-29T02:45:10;18.35;;;10.10;;
75012;SDS011;63567;49.956;20.130;2022-09-29T02:48:04;14.95;;;8.30;;
75012;SDS011;63567;49.956;20.130;2022-09-29T02:50:51;16.90;;;10.35;;
75012;SDS011;63567;49.956;20.130;2022-09-29T02:56:16;14.32;;;8.50;;
75012;SDS011;63567;49.956;20.130;2022-09-29T03:01:31;16.85;;;7.93;;
75012;SDS011;63567;49.956;20.130;2022-09-29T03:03:58;12.52;;;8.02;;
75012;SDS011;63567;49.956;20.130;2022-09-29T03:06:24;15.70;;;8.00;;
75012;SDS011;63567;49.956;20.130;2022-09-29T03:08:49;12.30;;;7.97;;
75012;SDS011;63567;49.956;20.130;2022-09-29T03:11:14;11.73;;;7.03;;
75012;SDS011;63567;49.956;20.130;2022-09-29T03:13:40;12.50;;;7.50;;
75012;SDS011;63567;49.956;20.130;2022-09-29T03:16:05;12.37;;;6.47;;
75012;SDS011;63567;49.956;20.130;2022-09-29T03:18:30;15.90;;;8.23;;
75012;SDS011;63567;49.956;20.130;2022-09-29T03:20:56;13.63;;;8.18;;
75012;SDS011;63567;49.956;20.130;2022-09-29T03:23:21;17.00;;;9.57;;
75012;SDS011;63567;49.956;20.130;2022-09-29T03:25:47;14.60;;;8.30;;
75012;SDS011;63567;49.956;20.130;2022-09-29T03:28:12;11.55;;;7.60;;
75012;SDS011;63567;49.956;20.130;2022-09-29T03:30:37;11.57;;;7.07;;
75012;SDS011;63567;49.956;20.130;2022-09-29T03:33:03;11.23;;;6.90;;
75012;SDS011;63567;49.956;20.130;2022-09-29T03:35:28;14.20;;;8.02;;
75012;SDS011;63567;49.956;20.130;2022-09-29T03:37:57;14.77;;;8.13;;
75012;SDS011;63567;49.956;20.130;2022-09-29T03:40:25;14.18;;;8.35;;
75012;SDS011;63567;49.956;20.130;2022-09-29T03:42:51;13.55;;;7.88;;
75012;SDS011;63567;49.956;20.130;2022-09-29T03:45:16;16.20;;;8.47;;
75012;SDS011;63567;49.956;20.130;2022-09-29T03:47:41;11.57;;;7.63;;
75012;SDS011;63567;49.956;20.130;2022-09-29T03:50:06;12.87;;;7.93;;
75012;SDS011;63567;49.956;20.130;2022-09-29T03:52:32;11.13;;;6.88;;
75012;SDS011;63567;49.956;20.130;2022-09-29T03:54:57;15.03;;;8.40;;
75012;SDS011;63567;49.956;20.130;2022-09-29T03:57:23;10.23;;;6.53;;
75012;SDS011;63567;49.956;20.130;2022-09-29T03:59:48;12.20;;;8.20;;
75012;SDS011;63567;49.956;20.130;2022-09-29T04:02:13;13.57;;;7.63;;
75012;SDS011;63567;49.956;20.130;2022-09-29T04:04:42;14.32;;;8.15;;
75012;SDS011;63567;49.956;20.130;2022-09-29T04:07:07;15.02;;;8.65;;
75012;SDS011;63567;49.956;20.130;2022-09-29T04:09:33;11.27;;;6.77;;
75012;SDS011;63567;49.956;20.130;2022-09-29T04:11:58;12.53;;;6.93;;
75012;SDS011;63567;49.956;20.130;2022-09-29T04:14:23;13.93;;;8.23;;
75012;SDS011;63567;49.956;20.130;2022-09-29T04:16:49;13.70;;;7.85;;
75012;SDS011;63567;49.956;20.130;2022-09-29T04:19:14;14.33;;;8.07;;
75012;SDS011;63567;49.956;20.130;2022-09-29T04:21:39;12.93;;;6.80;;
75012;SDS011;63567;49.956;20.130;2022-09-29T04:24:04;11.17;;;7.10;;
75012;SDS011;63567;49.956;20.130;2022-09-29T04:26:30;13.05;;;7.57;;
75012;SDS011;63567;49.956;20.130;2022-09-29T04:28:55;16.37;;;8.97;;
75012;SDS011;63567;49.956;20.130;2022-09-29T04:31:20;10.73;;;7.17;;
75012;SDS011;63567;49.956;20.130;2022-09-29T04:33:46;10.13;;;6.37;;
75012;SDS011;63567;49.956;20.130;2022-09-29T04:36:11;10.87;;;6.30;;
75012;SDS011;63567;49.956;20.130;2022-09-29T04:38:36;11.47;;;6.30;;
75012;SDS011;63567;49.956;20.130;2022-09-29T04:41:02;12.13;;;6.72;;
75012;SDS011;63567;49.956;20.130;2022-09-29T04:43:28;9.70;;;6.07;;
75012;SDS011;63567;49.956;20.130;2022-09-29T04:45:59;10.43;;;6.07;;
75012;SDS011;63567;49.956;20.130;2022-09-29T04:48:26;9.27;;;5.65;;
75012;SDS011;63567;49.956;20.130;2022-09-29T04:50:51;10.70;;;6.27;;
75012;SDS011;63567;49.956;20.130;2022-09-29T04:53:18;14.52;;;8.32;;
75012;SDS011;63567;49.956;20.130;2022-09-29T04:55:45;10.70;;;6.13;;
75012;SDS011;63567;49.956;20.130;2022-09-29T04:58:10;11.77;;;7.13;;
75012;SDS011;63567;49.956;20.130;2022-09-29T05:00:36;13.50;;;7.97;;
75012;SDS011;63567;49.956;20.130;2022-09-29T05:03:01;14.10;;;7.67;;
75012;SDS011;63567;49.956;20.130;2022-09-29T05:05:27;10.65;;;6.45;;
75012;SDS011;63567;49.956;20.130;2022-09-29T05:07:52;13.93;;;7.13;;
75012;SDS011;63567;49.956;20.130;2022-09-29T05:10:17;11.43;;;6.87;;
75012;SDS011;63567;49.956;20.130;2022-09-29T05:12:46;10.57;;;6.70;;
75012;SDS011;63567;49.956;20.130;2022-09-29T05:15:15;14.07;;;8.50;;
75012;SDS011;63567;49.956;20.130;2022-09-29T05:27:11;10.45;;;6.40;;
75012;SDS011;63567;49.956;20.130;2022-09-29T05:29:36;11.90;;;6.33;;
75012;SDS011;63567;49.956;20.130;2022-09-29T05:32:01;9.33;;;5.40;;
75012;SDS011;63567;49.956;20.130;2022-09-29T05:34:27;10.03;;;5.93;;
75012;SDS011;63567;49.956;20.130;2022-09-29T05:36:52;8.93;;;5.30;;
75012;SDS011;63567;49.956;20.130;2022-09-29T05:39:17;9.13;;;5.67;;
75012;SDS011;63567;49.956;20.130;2022-09-29T05:41:44;8.57;;;5.55;;
75012;SDS011;63567;49.956;20.130;2022-09-29T05:44:10;7.82;;;4.75;;
75012;SDS011;63567;49.956;20.130;2022-09-29T05:46:35;10.37;;;6.17;;
75012;SDS011;63567;49.956;20.130;2022-09-29T05:49:00;9.63;;;4.97;;
75012;SDS011;63567;49.956;20.130;2022-09-29T05:51:26;8.33;;;5.23;;
75012;SDS011;63567;49.956;20.130;2022-09-29T05:53:52;10.18;;;6.07;;
75012;SDS011;63567;49.956;20.130;2022-09-29T05:56:22;7.72;;;5.03;;
75012;SDS011;63567;49.956;20.130;2022-09-29T05:58:50;7.88;;;5.25;;
75012;SDS011;63567;49.956;20.130;2022-09-29T06:01:17;8.27;;;5.15;;
75012;SDS011;63567;49.956;20.130;2022-09-29T06:03:46;7.63;;;5.28;;
75012;SDS011;63567;49.956;20.130;2022-09-29T06:06:13;8.40;;;5.17;;
75012;SDS011;63567;49.956;20.130;2022-09-29T06:08:40;7.70;;;4.68;;
75012;SDS011;63567;49.956;20.130;2022-09-29T06:11:08;7.93;;;4.60;;
75012;SDS011;63567;49.956;20.130;2022-09-29T06:13:38;8.18;;;4.75;;
75012;SDS011;63567;49.956;20.130;2022-09-29T06:16:05;7.60;;;4.28;;
75012;SDS011;63567;49.956;20.130;2022-09-29T06:18:31;7.15;;;4.65;;
75012;SDS011;63567;49.956;20.130;2022-09-29T06:21:03;6.93;;;4.17;;
75012;SDS011;63567;49.956;20.130;2022-09-29T06:23:30;8.07;;;4.85;;
75012;SDS011;63567;49.956;20.130;2022-09-29T06:25:56;7.28;;;4.25;;
75012;SDS011;63567;49.956;20.130;2022-09-29T06:28:23;6.55;;;4.00;;
75012;SDS011;63567;49.956;20.130;2022-09-29T06:30:48;7.97;;;3.92;;
75012;SDS011;63567;49.956;20.130;2022-09-29T06:33:13;5.13;;;3.60;;
75012;SDS011;63567;49.956;20.130;2022-09-29T06:35:44;6.85;;;3.83;;
75012;SDS011;63567;49.956;20.130;2022-09-29T06:38:29;6.47;;;3.65;;
75012;SDS011;63567;49.956;20.130;2022-09-29T06:40:55;5.10;;;3.30;;
75012;SDS011;63567;49.956;20.130;2022-09-29T06:43:20;5.40;;;3.28;;
75012;SDS011;63567;49.956;20.130;2022-09-29T06:45:45;5.50;;;3.07;;
75012;SDS011;63567;49.956;20.130;2022-09-29T06:48:11;3.53;;;2.20;;
75012;SDS011;63567;49.956;20.130;2022-09-29T06:50:36;3.57;;;1.87;;
75012;SDS011;63567;49.956;20.130;2022-09-29T06:53:01;2.83;;;1.70;;
75012;SDS011;63567;49.956;20.130;2022-09-29T06:55:27;2.70;;;1.27;;
75012;SDS011;63567;49.956;20.130;2022-09-29T06:57:53;3.95;;;1.90;;
75012;SDS011;63567;49.956;20.130;2022-09-29T07:00:18;2.80;;;1.60;;
75012;SDS011;63567;49.956;20.130;2022-09-29T07:02:44;3.43;;;1.80;;
75012;SDS011;63567;49.956;20.130;2022-09-29T07:05:10;3.53;;;1.50;;
75012;SDS011;63567;49.956;20.130;2022-09-29T07:07:36;2.40;;;1.20;;
75012;SDS011;63567;49.956;20.130;2022-09-29T07:10:01;2.67;;;1.20;;
75012;SDS011;63567;49.956;20.130;2022-09-29T07:12:26;2.70;;;1.23;;
75012;SDS011;63567;49.956;20.130;2022-09-29T07:14:53;2.37;;;1.57;;
75012;SDS011;63567;49.956;20.130;2022-09-29T07:17:18;4.63;;;2.22;;
75012;SDS011;63567;49.956;20.130;2022-09-29T07:19:43;3.23;;;1.90;;
75012;SDS011;63567;49.956;20.130;2022-09-29T07:22:09;2.90;;;1.85;;
75012;SDS011;63567;49.956;20.130;2022-09-29T07:24:34;2.13;;;1.00;;
75012;SDS011;63567;49.956;20.130;2022-09-29T07:27:00;3.40;;;2.30;;
75012;SDS011;63567;49.956;20.130;2022-09-29T07:29:25;3.23;;;2.00;;
75012;SDS011;63567;49.956;20.130;2022-09-29T07:31:50;4.00;;;2.50;;
75012;SDS011;63567;49.956;20.130;2022-09-29T07:34:16;4.60;;;2.60;;
75012;SDS011;63567;49.956;20.130;2022-09-29T07:36:42;4.47;;;2.42;;
75012;SDS011;63567;49.956;20.130;2022-09-29T07:39:08;5.30;;;3.00;;
75012;SDS011;63567;49.956;20.130;2022-09-29T07:41:33;3.00;;;1.70;;
75012;SDS011;63567;49.956;20.130;2022-09-29T07:43:59;4.13;;;1.90;;
75012;SDS011;63567;49.956;20.130;2022-09-29T07:46:24;3.75;;;2.30;;
75012;SDS011;63567;49.956;20.130;2022-09-29T07:48:50;4.90;;;2.70;;
75012;SDS011;63567;49.956;20.130;2022-09-29T07:51:16;5.72;;;2.90;;
75012;SDS011;63567;49.956;20.130;2022-09-29T07:53:43;5.15;;;2.97;;
75012;SDS011;63567;49.956;20.130;2022-09-29T07:56:10;5.65;;;4.03;;
75012;SDS011;63567;49.956;20.130;2022-09-29T07:58:39;6.50;;;3.83;;
75012;SDS011;63567;49.956;20.130;2022-09-29T08:01:11;10.57;;;4.75;;
75012;SDS011;63567;49.956;20.130;2022-09-29T08:03:43;5.22;;;3.10;;
75012;SDS011;63567;49.956;20.130;2022-09-29T08:06:15;5.10;;;3.38;;
75012;SDS011;63567;49.956;20.130;2022-09-29T08:08:41;5.05;;;3.00;;
75012;SDS011;63567;49.956;20.130;2022-09-29T08:11:12;4.22;;;2.50;;
75012;SDS011;63567;49.956;20.130;2022-09-29T08:16:13;2.67;;;2.10;;
75012;SDS011;63567;49.956;20.130;2022-09-29T08:18:44;4.68;;;2.85;;
75012;SDS011;63567;49.956;20.130;2022-09-29T08:21:16;3.95;;;2.83;;
75012;SDS011;63567;49.956;20.130;2022-09-29T08:23:43;5.35;;;3.38;;
75012;SDS011;63567;49.956;20.130;2022-09-29T08:26:15;6.88;;;3.83;;
75012;SDS011;63567;49.956;20.130;2022-09-29T08:28:45;4.82;;;3.30;;
75012;SDS011;63567;49.956;20.130;2022-09-29T08:31:15;5.88;;;3.85;;
75012;SDS011;63567;49.956;20.130;2022-09-29T08:33:46;7.60;;;4.60;;
75012;SDS011;63567;49.956;20.130;2022-09-29T08:36:18;4.85;;;3.10;;
75012;SDS011;63567;49.956;20.130;2022-09-29T08:38:48;4.50;;;2.60;;
75012;SDS011;63567;49.956;20.130;2022-09-29T08:47:05;4.25;;;1.75;;
75012;SDS011;63567;49.956;20.130;2022-09-29T08:52:29;3.13;;;2.20;;
75012;SDS011;63567;49.956;20.130;2022-09-29T08:55:22;3.35;;;2.08;;
75012;SDS011;63567;49.956;20.130;2022-09-29T08:57:58;4.15;;;2.00;;
75012;SDS011;63567;49.956;20.130;2022-09-29T09:01:12;4.30;;;2.70;;
75012;SDS011;63567;49.956;20.130;2022-09-29T09:06:35;4.95;;;2.55;;
75012;SDS011;63567;49.956;20.130;2022-09-29T09:15:19;5.93;;;3.05;;
75012;SDS011;63567;49.956;20.130;2022-09-29T09:21:19;4.90;;;2.25;;
75012;SDS011;63567;49.956;20.130;2022-09-29T09:23:59;2.20;;;1.00;;
75012;SDS011;63567;49.956;20.130;2022-09-29T09:26:40;2.88;;;1.40;;
75012;SDS011;63567;49.956;20.130;2022-09-29T09:31:56;2.88;;;1.83;;
75012;SDS011;63567;49.956;20.130;2022-09-29T09:34:51;3.65;;;2.00;;
75012;SDS011;63567;49.956;20.130;2022-09-29T09:37:27;5.10;;;2.22;;
75012;SDS011;63567;49.956;20.130;2022-09-29T09:39:58;3.50;;;2.33;;
75012;SDS011;63567;49.956;20.130;2022-09-29T09:42:33;4.72;;;2.40;;
75012;SDS011;63567;49.956;20.130;2022-09-29T09:47:55;4.03;;;2.05;;
75012;SDS011;63567;49.956;20.130;2022-09-29T09:50:38;3.00;;;1.60;;
75012;SDS011;63567;49.956;20.130;2022-09-29T09:53:31;1.83;;;1.02;;
75012;SDS011;63567;49.956;20.130;2022-09-29T10:02:00;4.18;;;1.50;;
75012;SDS011;63567;49.956;20.130;2022-09-29T10:04:43;2.72;;;1.60;;
75012;SDS011;63567;49.956;20.130;2022-09-29T10:07:13;4.72;;;1.52;;
75012;SDS011;63567;49.956;20.130;2022-09-29T10:09:48;3.47;;;1.50;;
75012;SDS011;63567;49.956;20.130;2022-09-29T10:12:25;3.17;;;1.63;;
75012;SDS011;63567;49.956;20.130;2022-09-29T10:14:56;3.65;;;2.30;;
75012;SDS011;63567;49.956;20.130;2022-09-29T10:20:07;1.70;;;0.93;;
75012;SDS011;63567;49.956;20.130;2022-09-29T10:22:42;1.73;;;0.60;;
75012;SDS011;63567;49.956;20.130;2022-09-29T10:25:36;1.83;;;0.82;;
75012;SDS011;63567;49.956;20.130;2022-09-29T10:28:27;3.00;;;1.08;;
75012;SDS011;63567;49.956;20.130;2022-09-29T10:31:23;2.85;;;1.70;;
75012;SDS011;63567;49.956;20.130;2022-09-29T10:34:23;5.43;;;1.60;;
75012;SDS011;63567;49.956;20.130;2022-09-29T10:36:59;2.05;;;0.95;;
75012;SDS011;63567;49.956;20.130;2022-09-29T10:39:30;4.40;;;2.78;;
75012;SDS011;63567;49.956;20.130;2022-09-29T10:42:14;2.13;;;1.20;;
75012;SDS011;63567;49.956;20.130;2022-09-29T10:45:13;1.90;;;0.90;;
75012;SDS011;63567;49.956;20.130;2022-09-29T10:50:30;2.65;;;1.52;;
75012;SDS011;63567;49.956;20.130;2022-09-29T10:56:15;2.78;;;1.60;;
75012;SDS011;63567;49.956;20.130;2022-09-29T10:59:00;2.35;;;1.50;;
75012;SDS011;63567;49.956;20.130;2022-09-29T11:01:31;2.42;;;1.00;;
75012;SDS011;63567;49.956;20.130;2022-09-29T11:04:12;3.22;;;1.30;;
75012;SDS011;63567;49.956;20.130;2022-09-29T11:06:55;1.90;;;0.90;;
75012;SDS011;63567;49.956;20.130;2022-09-29T11:09:40;1.83;;;0.80;;
75012;SDS011;63567;49.956;20.130;2022-09-29T11:12:25;2.35;;;0.90;;
75012;SDS011;63567;49.956;20.130;2022-09-29T11:14:59;2.35;;;1.15;;
75012;SDS011;63567;49.956;20.130;2022-09-29T11:17:49;1.90;;;0.90;;
75012;SDS011;63567;49.956;20.130;2022-09-29T11:20:19;1.95;;;0.90;;
75012;SDS011;63567;49.956;20.130;2022-09-29T11:36:35;2.45;;;1.23;;
75012;SDS011;63567;49.956;20.130;2022-09-29T11:39:16;1.90;;;1.17;;
75012;SDS011;63567;49.956;20.130;2022-09-29T11:42:15;2.03;;;0.73;;
75012;SDS011;63567;49.956;20.130;2022-09-29T11:44:56;1.50;;;1.00;;
75012;SDS011;63567;49.956;20.130;2022-09-29T11:47:42;1.88;;;0.90;;
75012;SDS011;63567;49.956;20.130;2022-09-29T11:50:36;2.33;;;1.13;;
75012;SDS011;63567;49.956;20.130;2022-09-29T12:15:51;1.80;;;0.85;;
75012;SDS011;63567;49.956;20.130;2022-09-29T12:19:10;2.05;;;1.00;;
75012;SDS011;63567;49.956;20.130;2022-09-29T12:21:47;2.20;;;0.90;;
75012;SDS011;63567;49.956;20.130;2022-09-29T12:24:35;2.53;;;0.93;;
75012;SDS011;63567;49.956;20.130;2022-09-29T12:27:07;1.95;;;0.80;;
75012;SDS011;63567;49.956;20.130;2022-09-29T12:30:36;2.53;;;2.10;;
75012;SDS011;63567;49.956;20.130;2022-09-29T12:33:28;2.58;;;1.38;;
75012;SDS011;63567;49.956;20.130;2022-09-29T12:41:48;2.10;;;0.90;;
75012;SDS011;63567;49.956;20.130;2022-09-29T12:44:30;1.30;;;0.63;;
75012;SDS011;63567;49.956;20.130;2022-09-29T12:47:14;1.58;;;0.60;;
75012;SDS011;63567;49.956;20.130;2022-09-29T12:49:57;1.98;;;1.00;;
75012;SDS011;63567;49.956;20.130;2022-09-29T12:52:31;3.13;;;1.17;;
75012;SDS011;63567;49.956;20.130;2022-09-29T12:55:22;1.30;;;0.50;;
75012;SDS011;63567;49.956;20.130;2022-09-29T12:57:56;1.55;;;0.85;;
75012;SDS011;63567;49.956;20.130;2022-09-29T13:00:24;1.70;;;0.80;;
75012;SDS011;63567;49.956;20.130;2022-09-29T13:02:57;4.53;;;1.15;;
75012;SDS011;63567;49.956;20.130;2022-09-29T13:11:50;2.72;;;1.70;;
75012;SDS011;63567;49.956;20.130;2022-09-29T13:14:52;1.95;;;1.20;;
75012;SDS011;63567;49.956;20.130;2022-09-29T13:20:27;1.92;;;0.85;;
75012;SDS011;63567;49.956;20.130;2022-09-29T13:23:08;3.97;;;1.88;;
75012;SDS011;63567;49.956;20.130;2022-09-29T13:26:03;2.90;;;2.20;;
75012;SDS011;63567;49.956;20.130;2022-09-29T13:28:36;1.63;;;0.80;;
75012;SDS011;63567;49.956;20.130;2022-09-29T13:31:13;2.20;;;1.58;;
75012;SDS011;63567;49.956;20.130;2022-09-29T13:33:49;3.00;;;1.65;;
75012;SDS011;63567;49.956;20.130;2022-09-29T13:36:26;4.60;;;3.22;;
75012;SDS011;63567;49.956;20.130;2022-09-29T13:38:54;2.47;;;1.73;;
75012;SDS011;63567;49.956;20.130;2022-09-29T13:46:26;2.55;;;1.73;;
75012;SDS011;63567;49.956;20.130;2022-09-29T13:54:32;4.88;;;2.80;;
75012;SDS011;63567;49.956;20.130;2022-09-29T13:59:40;3.50;;;2.35;;
75012;SDS011;63567;49.956;20.130;2022-09-29T14:07:47;2.45;;;1.27;;
75012;SDS011;63567;49.956;20.130;2022-09-29T14:13:24;1.88;;;0.90;;
75012;SDS011;63567;49.956;20.130;2022-09-29T14:18:35;2.97;;;1.55;;
75012;SDS011;63567;49.956;20.130;2022-09-29T14:21:08;3.30;;;1.33;;
75012;SDS011;63567;49.956;20.130;2022-09-29T14:29:13;2.20;;;1.00;;
75012;SDS011;63567;49.956;20.130;2022-09-29T14:31:43;3.75;;;2.50;;
75012;SDS011;63567;49.956;20.130;2022-09-29T14:34:13;3.58;;;2.30;;
75012;SDS011;63567;49.956;20.130;2022-09-29T14:36:41;5.30;;;3.05;;
75012;SDS011;63567;49.956;20.130;2022-09-29T14:39:09;3.50;;;2.40;;
75012;SDS011;63567;49.956;20.130;2022-09-29T14:41:39;3.08;;;1.83;;
75012;SDS011;63567;49.956;20.130;2022-09-29T14:50:48;3.30;;;1.90;;
75012;SDS011;63567;49.956;20.130;2022-09-29T14:53:45;3.30;;;1.90;;
75012;SDS011;63567;49.956;20.130;2022-09-29T15:02:01;3.35;;;2.47;;
75012;SDS011;63567;49.956;20.130;2022-09-29T15:04:43;4.25;;;2.50;;
75012;SDS011;63567;49.956;20.130;2022-09-29T15:07:13;4.35;;;2.40;;
75012;SDS011;63567;49.956;20.130;2022-09-29T15:09:44;4.65;;;2.90;;
75012;SDS011;63567;49.956;20.130;2022-09-29T15:12:13;4.38;;;3.13;;
75012;SDS011;63567;49.956;20.130;2022-09-29T15:14:41;5.70;;;4.00;;
75012;SDS011;63567;49.956;20.130;2022-09-29T15:17:07;5.70;;;3.57;;
75012;SDS011;63567;49.956;20.130;2022-09-29T15:19:44;8.20;;;4.70;;
75012;SDS011;63567;49.956;20.130;2022-09-29T15:25:37;6.40;;;4.40;;
75012;SDS011;63567;49.956;20.130;2022-09-29T15:30:55;4.97;;;3.58;;
75012;SDS011;63567;49.956;20.130;2022-09-29T15:33:30;4.43;;;3.50;;
75012;SDS011;63567;49.956;20.130;2022-09-29T15:36:03;6.20;;;3.40;;
75012;SDS011;63567;49.956;20.130;2022-09-29T15:38:34;6.90;;;4.05;;
75012;SDS011;63567;49.956;20.130;2022-09-29T15:41:03;5.80;;;3.33;;
75012;SDS011;63567;49.956;20.130;2022-09-29T15:43:40;6.53;;;3.30;;
75012;SDS011;63567;49.956;20.130;2022-09-29T15:48:42;6.10;;;3.50;;
75012;SDS011;63567;49.956;20.130;2022-09-29T15:51:29;6.15;;;4.00;;
75012;SDS011;63567;49.956;20.130;2022-09-29T15:53:55;8.30;;;5.35;;
75012;SDS011;63567;49.956;20.130;2022-09-29T15:56:21;7.45;;;4.93;;
75012;SDS011;63567;49.956;20.130;2022-09-29T15:58:46;6.53;;;4.53;;
75012;SDS011;63567;49.956;20.130;2022-09-29T16:01:13;8.50;;;3.83;;
75012;SDS011;63567;49.956;20.130;2022-09-29T16:08:52;7.97;;;4.82;;
75012;SDS011;63567;49.956;20.130;2022-09-29T16:11:32;8.50;;;4.68;;
75012;SDS011;63567;49.956;20.130;2022-09-29T16:16:34;6.70;;;4.88;;
75012;SDS011;63567;49.956;20.130;2022-09-29T16:19:23;8.68;;;5.13;;
75012;SDS011;63567;49.956;20.130;2022-09-29T16:21:55;8.18;;;4.75;;
75012;SDS011;63567;49.956;20.130;2022-09-29T16:24:25;7.28;;;4.63;;
75012;SDS011;63567;49.956;20.130;2022-09-29T16:26:54;7.88;;;5.55;;
75012;SDS011;63567;49.956;20.130;2022-09-29T16:29:22;8.00;;;4.97;;
75012;SDS011;63567;49.956;20.130;2022-09-29T16:31:59;9.40;;;6.07;;
75012;SDS011;63567;49.956;20.130;2022-09-29T16:34:46;12.73;;;7.38;;
75012;SDS011;63567;49.956;20.130;2022-09-29T16:37:14;12.00;;;7.83;;
75012;SDS011;63567;49.956;20.130;2022-09-29T16:39:43;11.25;;;6.70;;
75012;SDS011;63567;49.956;20.130;2022-09-29T16:42:17;12.38;;;8.02;;
75012;SDS011;63567;49.956;20.130;2022-09-29T16:47:15;14.63;;;8.52;;
75012;SDS011;63567;49.956;20.130;2022-09-29T16:49:57;15.20;;;9.80;;
75012;SDS011;63567;49.956;20.130;2022-09-29T16:53:02;13.75;;;8.65;;
75012;SDS011;63567;49.956;20.130;2022-09-29T16:57:56;12.80;;;8.73;;
75012;SDS011;63567;49.956;20.130;2022-09-29T17:00:25;15.27;;;8.60;;
75012;SDS011;63567;49.956;20.130;2022-09-29T17:02:50;13.95;;;9.43;;
75012;SDS011;63567;49.956;20.130;2022-09-29T17:05:17;15.70;;;9.77;;
75012;SDS011;63567;49.956;20.130;2022-09-29T17:07:42;16.85;;;9.70;;
75012;SDS011;63567;49.956;20.130;2022-09-29T17:10:18;15.80;;;8.77;;
75012;SDS011;63567;49.956;20.130;2022-09-29T17:12:45;15.73;;;9.52;;
75012;SDS011;63567;49.956;20.130;2022-09-29T17:15:14;14.70;;;9.00;;
75012;SDS011;63567;49.956;20.130;2022-09-29T17:17:43;15.68;;;9.68;;
75012;SDS011;63567;49.956;20.130;2022-09-29T17:20:16;15.35;;;9.18;;
75012;SDS011;63567;49.956;20.130;2022-09-29T17:22:53;16.02;;;10.27;;
75012;SDS011;63567;49.956;20.130;2022-09-29T17:25:18;17.35;;;10.32;;
75012;SDS011;63567;49.956;20.130;2022-09-29T17:27:43;16.13;;;10.07;;
75012;SDS011;63567;49.956;20.130;2022-09-29T17:30:28;17.67;;;10.68;;
75012;SDS011;63567;49.956;20.130;2022-09-29T17:32:53;16.00;;;8.97;;
75012;SDS011;63567;49.956;20.130;2022-09-29T17:35:23;13.60;;;8.10;;
75012;SDS011;63567;49.956;20.130;2022-09-29T17:37:51;15.25;;;9.35;;
75012;SDS011;63567;49.956;20.130;2022-09-29T17:40:18;15.63;;;9.15;;
75012;SDS011;63567;49.956;20.130;2022-09-29T17:42:47;16.10;;;8.98;;
75012;SDS011;63567;49.956;20.130;2022-09-29T17:45:13;22.65;;;16.00;;
75012;SDS011;63567;49.956;20.130;2022-09-29T17:47:43;17.30;;;9.98;;
75012;SDS011;63567;49.956;20.130;2022-09-29T17:50:15;15.82;;;9.77;;
75012;SDS011;63567;49.956;20.130;2022-09-29T17:52:45;14.70;;;9.02;;
75012;SDS011;63567;49.956;20.130;2022-09-29T17:55:10;18.43;;;8.50;;
75012;SDS011;63567;49.956;20.130;2022-09-29T17:57:36;14.05;;;8.38;;
75012;SDS011;63567;49.956;20.130;2022-09-29T18:00:03;14.57;;;8.98;;
75012;SDS011;63567;49.956;20.130;2022-09-29T18:02:38;16.30;;;9.85;;
75012;SDS011;63567;49.956;20.130;2022-09-29T18:05:03;16.93;;;9.27;;
75012;SDS011;63567;49.956;20.130;2022-09-29T18:07:29;19.33;;;10.00;;
75012;SDS011;63567;49.956;20.130;2022-09-29T18:09:57;16.02;;;9.73;;
75012;SDS011;63567;49.956;20.130;2022-09-29T18:12:23;17.33;;;10.27;;
75012;SDS011;63567;49.956;20.130;2022-09-29T18:14:48;18.53;;;10.00;;
75012;SDS011;63567;49.956;20.130;2022-09-29T18:17:13;19.97;;;10.63;;